FW2307 Weather Reports


Display with metric or nautical units.
time (UTC)temp
F
wind
direction
speed
MPH
gust
MPH
rain 1hr
in
rain 24hr
in
rain mn
in
humidity
%
barometer
mb
20210919050921 61 270 0.0 0.0 0.00 0.00 0.00 29 1026.3
20210919050621 62 270 0.0 0.0 0.00 0.00 0.00 29 1026.5
20210919050320 62 270 0.0 0.0 0.00 0.00 0.00 29 1026.4
20210919050020 62 270 0.0 1.0 0.00 0.00 0.00 28 1026.5
20210919045721 63 270 1.0 2.0 0.00 0.00 0.00 28 1026.6
20210919045421 64 270 2.0 3.0 0.00 0.00 0.00 27 1026.6
20210919045123 65 270 2.0 3.0 0.00 0.00 0.00 27 1026.7
20210919044821 66 302 2.0 4.0 0.00 0.00 0.00 27 1026.6
20210919044521 66 262 1.0 4.0 0.00 0.00 0.00 27 1026.7
20210919043321 66 266 1.0 3.0 0.00 0.00 0.00 26 1026.8
20210919042123 66 270 0.0 1.0 0.00 0.00 0.00 26 1026.9
20210919041819 67 270 0.0 3.0 0.00 0.00 0.00 26 1027.1
20210919041520 66 252 1.0 2.0 0.00 0.00 0.00 26 1027.1
20210919041220 66 260 2.0 4.0 0.00 0.00 0.00 26 1027.0
20210919040320 66 270 2.0 3.0 0.00 0.00 0.00 26 1027.0
20210919040036 65 263 2.0 4.0 0.00 0.00 0.00 26 1027.0
20210919035122 65 204 0.0 1.0 0.00 0.00 0.00 25 1027.0
20210919033922 67 112 0.0 0.0 0.00 0.00 0.00 24 1027.3
20210919033620 68 112 0.0 0.0 0.00 0.00 0.00 23 1027.4
20210919032422 69 97 1.0 4.0 0.00 0.00 0.00 23 1027.4
20210919031520 69 126 2.0 5.0 0.00 0.00 0.00 23 1027.5
20210919030322 68 128 2.0 4.0 0.00 0.00 0.00 23 1027.6
20210919030021 68 145 2.0 5.0 0.00 0.00 0.00 23 1027.6
20210919025720 68 91 2.0 5.0 0.00 0.00 0.00 24 1027.6
20210919025420 68 120 2.0 4.0 0.00 0.00 0.00 24 1027.5
20210919024519 68 145 2.0 5.0 0.00 0.00 0.00 25 1027.4
20210919024220 68 115 3.0 6.0 0.00 0.00 0.00 25 1027.4
20210919023021 68 270 0.0 0.0 0.00 0.00 0.00 25 1027.1
20210919022119 67 270 2.0 3.0 0.00 0.00 0.00 24 1027.1
20210919021820 67 232 0.0 2.0 0.00 0.00 0.00 24 1027.2
20210919021521 67 225 0.0 0.0 0.00 0.00 0.00 24 1027.1
20210919020321 67 287 0.0 0.0 0.00 0.00 0.00 22 1027.1
20210919020022 67 292 0.0 1.0 0.00 0.00 0.00 22 1027.1
20210919014820 69 292 0.0 0.0 0.00 0.00 0.00 21 1027.3
20210919014521 69 308 0.0 0.0 0.00 0.00 0.00 21 1027.3
20210919014221 69 319 0.0 1.0 0.00 0.00 0.00 21 1027.2
20210919013320 70 270 1.0 2.0 0.00 0.00 0.00 20 1027.2
20210919012122 71 247 0.0 0.0 0.00 0.00 0.00 19 1027.4
20210919011821 71 247 0.0 0.0 0.00 0.00 0.00 19 1027.3
20210919011521 72 247 0.0 0.0 0.00 0.00 0.00 19 1027.3
20210919011221 72 247 0.0 2.0 0.00 0.00 0.00 19 1027.4
20210919010920 72 247 0.0 0.0 0.00 0.00 0.00 19 1027.4
20210919010621 73 247 0.0 0.0 0.00 0.00 0.00 19 1027.4
20210919010320 73 247 0.0 0.0 0.00 0.00 0.00 19 1027.4
20210919005121 73 269 2.0 6.0 0.00 0.00 0.00 19 1027.6
20210919004821 73 334 0.0 2.0 0.00 0.00 0.00 19 1027.7
20210919004521 74 337 2.0 3.0 0.00 0.00 0.00 19 1027.7
20210919003321 74 315 0.0 1.0 0.00 0.00 0.00 18 1027.7
20210919002123 75 332 1.0 4.0 0.00 0.00 0.00 18 1027.7
20210919000922 75 280 0.0 2.0 0.00 0.00 0.00 18 1027.6
20210919000619 75 265 0.0 1.0 0.00 0.00 0.00 18 1027.6
20210919000319 75 247 0.0 1.0 0.00 0.00 0.00 18 1027.7
20210918235122 76 337 0.0 2.0 0.00 0.00 0.00 18 1027.5
20210918234819 76 3 1.0 2.0 0.00 0.00 0.00 18 1027.6
20210918234520 76 328 1.0 4.0 0.00 0.00 0.00 18 1027.5
20210918233321 76 322 2.0 4.0 0.00 0.00 0.00 18 1027.5
20210918233020 76 301 0.0 2.0 0.00 0.00 0.00 18 1027.5
20210918232720 76 314 1.0 3.0 0.00 0.00 0.00 18 1027.6
20210918232419 76 322 1.0 3.0 0.00 0.00 0.00 18 1027.7
20210918232121 76 301 2.0 5.0 0.00 0.00 0.00 18 1027.7
20210918231822 76 283 0.0 4.0 0.00 0.00 0.00 18 1027.7
20210918230919 77 338 3.0 7.0 0.00 0.00 0.00 18 1027.9
20210918230620 77 285 2.0 4.0 0.00 0.00 0.00 18 1028.0
20210918230321 77 327 1.0 2.0 0.00 0.00 0.00 17 1028.1
20210918225120 78 325 2.0 5.0 0.00 0.00 0.00 17 1027.9
20210918224820 79 354 3.0 5.0 0.00 0.00 0.00 17 1027.9
20210918223621 77 307 0.0 3.0 0.00 0.00 0.00 17 1028.0
20210918223322 77 7 1.0 4.0 0.00 0.00 0.00 17 1028.0
20210918222120 78 296 1.0 4.0 0.00 0.00 0.00 17 1027.8
20210918221219 79 128 2.0 4.0 0.00 0.00 0.00 16 1028.2
20210918220921 80 95 4.0 8.0 0.00 0.00 0.00 15 1028.2
20210918220622 80 54 5.0 9.0 0.00 0.00 0.00 15 1028.2
20210918220321 81 90 9.0 18.0 0.00 0.00 0.00 15 1027.9
20210918215120 81 153 3.0 5.0 0.00 0.00 0.00 14 1028.2
20210918214819 81 115 4.0 7.0 0.00 0.00 0.00 14 1028.2
20210918213619 82 116 6.0 11.0 0.00 0.00 0.00 14 1028.4
20210918212419 82 162 4.0 12.0 0.00 0.00 0.00 14 1028.6
20210918212119 82 222 3.0 8.0 0.00 0.00 0.00 14 1028.8
20210918210922 82 142 6.0 16.0 0.00 0.00 0.00 13 1028.9
20210918205720 83 155 5.0 12.0 0.00 0.00 0.00 13 1029.4
20210918204520 82 150 2.0 7.0 0.00 0.00 0.00 15 1029.6
20210918204219 82 152 4.0 12.0 0.00 0.00 0.00 15 1029.5
20210918203021 79 264 3.0 6.0 0.00 0.00 0.00 15 1029.5
20210918201820 80 337 3.0 7.0 0.00 0.00 0.00 14 1029.9
20210918201518 80 199 4.0 8.0 0.00 0.00 0.00 14 1030.0
20210918201219 80 246 3.0 6.0 0.00 0.00 0.00 14 1030.2
20210918200922 80 251 5.0 12.0 0.00 0.00 0.00 14 1030.2
20210918195721 81 137 5.0 14.0 0.00 0.00 0.00 14 1030.3
20210918194521 81 154 5.0 11.0 0.00 0.00 0.00 15 1030.8
20210918193321 81 198 1.0 7.0 0.00 0.00 0.00 14 1031.1
20210918193021 81 293 3.0 6.0 0.00 0.00 0.00 14 1031.1
20210918192719 81 216 4.0 9.0 0.00 0.00 0.00 15 1031.1
20210918192419 80 136 6.0 15.0 0.00 0.00 0.00 15 1031.0
20210918192122 80 86 6.0 15.0 0.00 0.00 0.00 15 1030.9
20210918191820 79 67 5.0 8.0 0.00 0.00 0.00 15 1030.9
20210918190918 80 73 5.0 10.0 0.00 0.00 0.00 15 1031.3
20210918190620 80 76 4.0 8.0 0.00 0.00 0.00 15 1031.4
20210918190338 80 36 3.0 7.0 0.00 0.00 0.00 15 1031.4
20210918185119 79 101 3.0 7.0 0.00 0.00 0.00 15 1031.3
20210918183921 79 88 4.0 8.0 0.00 0.00 0.00 15 1031.8
20210918182720 78 73 7.0 12.0 0.00 0.00 0.00 15 1032.1
20210918181521 77 109 4.0 8.0 0.00 0.00 0.00 15 1032.3
20210918180340 76 93 3.0 11.0 0.00 0.00 0.00 15 1032.5
20210918180022 76 65 2.0 7.0 0.00 0.00 0.00 15 1032.7
20210918174820 76 73 4.0 7.0 0.00 0.00 0.00 14 1033.0
20210918174520 76 68 3.0 6.0 0.00 0.00 0.00 14 1033.0
20210918173321 76 84 3.0 7.0 0.00 0.00 0.00 13 1033.3
20210918173019 76 72 3.0 7.0 0.00 0.00 0.00 14 1033.4
20210918172719 76 73 4.0 7.0 0.00 0.00 0.00 14 1033.4
20210918171521 76 60 1.0 4.0 0.00 0.00 0.00 14 1033.5
20210918170619 75 110 4.0 7.0 0.00 0.00 0.00 14 1033.7
20210918165419 75 77 2.0 9.0 0.00 0.00 0.00 14 1033.9
20210918165119 75 71 2.0 6.0 0.00 0.00 0.00 14 1033.8
20210918163920 75 91 4.0 11.0 0.00 0.00 0.00 14 1034.0
20210918163619 75 38 3.0 6.0 0.00 0.00 0.00 14 1033.9
20210918163320 75 77 1.0 4.0 0.00 0.00 0.00 14 1033.8
20210918162121 74 68 3.0 5.0 0.00 0.00 0.00 14 1033.8
20210918160919 73 40 3.0 6.0 0.00 0.00 0.00 15 1033.7
20210918155721 73 253 0.0 2.0 0.00 0.00 0.00 15 1033.7
20210918154520 71 1 2.0 4.0 0.00 0.00 0.00 16 1033.5
20210918153322 71 43 3.0 7.0 0.00 0.00 0.00 16 1033.3
20210918153020 71 70 1.0 4.0 0.00 0.00 0.00 17 1033.3
20210918152718 71 315 1.0 3.0 0.00 0.00 0.00 17 1033.1
20210918152418 70 7 1.0 5.0 0.00 0.00 0.00 17 1033.1
20210918152121 70 356 2.0 4.0 0.00 0.00 0.00 18 1032.9
20210918150920 67 351 2.0 3.0 0.00 0.00 0.00 19 1032.4
20210918150619 66 296 1.0 3.0 0.00 0.00 0.00 20 1032.3
20210918150319 65 342 1.0 3.0 0.00 0.00 0.00 21 1032.3
20210918150019 64 321 2.0 4.0 0.00 0.00 0.00 25 1032.2
20210918145720 63 342 1.0 3.0 0.00 0.00 0.00 28 1032.0
20210918144535 61 112 0.0 0.0 0.00 0.00 0.00 33 1032.0
20210918143321 60 292 0.0 0.0 0.00 0.00 0.00 27 1031.9
20210918143020 60 292 0.0 0.0 0.00 0.00 0.00 27 1031.9
20210918142720 59 292 0.0 0.0 0.00 0.00 0.00 27 1031.9
20210918142419 59 292 0.0 0.0 0.00 0.00 0.00 27 1031.8
20210918142120 59 292 0.0 0.0 0.00 0.00 0.00 28 1031.7
20210918141821 58 292 0.0 0.0 0.00 0.00 0.00 29 1031.6
20210918141519 58 292 0.0 0.0 0.00 0.00 0.00 30 1031.5
20210918140321 57 302 0.0 1.0 0.00 0.00 0.00 29 1031.5
20210918140019 56 293 0.0 2.0 0.00 0.00 0.00 29 1031.4
20210918135719 56 90 0.0 0.0 0.00 0.00 0.00 28 1031.5
20210918135421 56 301 0.0 3.0 0.00 0.00 0.00 28 1031.5
20210918135121 56 307 1.0 4.0 0.00 0.00 0.00 28 1031.5
20210918133919 57 136 0.0 2.0 0.00 0.00 0.00 26 1031.6
20210918133618 58 122 2.0 4.0 0.00 0.00 0.00 25 1031.6
20210918132419 59 206 0.0 2.0 0.00 0.00 0.00 23 1031.5
20210918131518 58 204 1.0 3.0 0.00 0.00 0.00 24 1031.3
20210918131219 57 223 1.0 3.0 0.00 0.00 0.00 24 1031.3
20210918130921 57 236 1.0 3.0 0.00 0.00 0.00 25 1031.3
20210918125719 58 158 1.0 3.0 0.00 0.00 0.00 24 1031.3
20210918124521 58 223 0.0 2.0 0.00 0.00 0.00 24 1031.2
20210918123320 56 244 1.0 4.0 0.00 0.00 0.00 25 1030.9
20210918123019 56 265 1.0 4.0 0.00 0.00 0.00 26 1031.0
20210918121819 56 192 0.0 1.0 0.00 0.00 0.00 26 1030.9
20210918121520 56 196 0.0 3.0 0.00 0.00 0.00 26 1030.9
20210918121219 55 259 1.0 4.0 0.00 0.00 0.00 27 1030.8
20210918120920 55 239 1.0 5.0 0.00 0.00 0.00 27 1030.7
20210918120618 55 204 0.0 2.0 0.00 0.00 0.00 27 1030.7
20210918120318 54 202 0.0 2.0 0.00 0.00 0.00 28 1030.6
20210918115119 51 139 0.0 0.0 0.00 0.00 0.00 30 1030.4
20210918114821 50 206 0.0 2.0 0.00 0.00 0.00 31 1030.3
20210918113918 49 328 0.0 2.0 0.00 0.00 0.00 33 1030.1
20210918112721 49 292 0.0 1.0 0.00 0.00 0.00 33 1030.2
20210918111519 49 315 0.0 1.0 0.00 0.00 0.00 33 1030.3
20210918110321 49 292 0.0 0.0 0.00 0.00 0.00 32 1030.3
20210918110020 50 292 0.0 0.0 0.00 0.00 0.00 33 1030.3
20210918105118 50 292 0.0 1.0 0.00 0.00 0.00 32 1030.3
20210918104818 50 292 0.0 0.0 0.00 0.00 0.00 33 1030.5
20210918104520 50 292 0.0 1.0 0.00 0.00 0.00 34 1030.4
20210918103319 51 292 0.0 1.0 0.00 0.00 0.00 36 1030.6
20210918102119 50 292 0.0 0.0 0.00 0.00 0.00 38 1030.5
20210918101819 50 292 0.0 1.0 0.00 0.00 0.00 39 1030.5
20210918101520 50 292 1.0 2.0 0.00 0.00 0.00 38 1030.5
20210918101220 50 292 0.0 1.0 0.00 0.00 0.00 38 1030.5
20210918100921 50 296 1.0 2.0 0.00 0.00 0.00 38 1030.5
20210918100619 50 337 0.0 1.0 0.00 0.00 0.00 37 1030.5
20210918100318 50 316 1.0 3.0 0.00 0.00 0.00 38 1030.5
20210918100019 51 247 1.0 2.0 0.00 0.00 0.00 38 1030.5
20210918095721 51 297 0.0 2.0 0.00 0.00 0.00 38 1030.5
20210918095419 51 278 1.0 3.0 0.00 0.00 0.00 39 1030.6
20210918095119 51 247 0.0 0.0 0.00 0.00 0.00 40 1030.6
20210918094818 51 259 0.0 0.0 0.00 0.00 0.00 41 1030.5
20210918094518 51 273 1.0 3.0 0.00 0.00 0.00 42 1030.5
20210918093320 50 270 1.0 1.0 0.00 0.00 0.00 45 1030.6
20210918093020 50 270 1.0 1.0 0.00 0.00 0.00 46 1030.6
20210918092719 50 270 1.0 2.0 0.00 0.00 0.00 47 1030.4
20210918091519 50 90 0.0 0.0 0.00 0.00 0.00 46 1030.5
20210918091220 50 278 0.0 1.0 0.00 0.00 0.00 45 1030.7
20210918090919 50 247 0.0 1.0 0.00 0.00 0.00 44 1030.7
20210918085718 50 287 1.0 2.0 0.00 0.00 0.00 43 1030.8
20210918084519 50 274 0.0 1.0 0.00 0.00 0.00 45 1030.9
20210918084219 50 270 0.0 0.0 0.00 0.00 0.00 44 1030.9
20210918083921 49 270 0.0 0.0 0.00 0.00 0.00 44 1030.9
20210918083619 49 270 0.0 0.0 0.00 0.00 0.00 45 1031.0
20210918083320 49 270 0.0 0.0 0.00 0.00 0.00 45 1031.0
20210918083020 49 271 0.0 2.0 0.00 0.00 0.00 46 1031.0
20210918082118 50 270 1.0 1.0 0.00 0.00 0.00 49 1030.9
20210918081821 50 270 0.0 1.0 0.00 0.00 0.00 51 1031.0
20210918080918 50 292 1.0 2.0 0.00 0.00 0.00 55 1030.9
20210918080622 50 306 1.0 2.0 0.00 0.00 0.00 55 1030.9
20210918080318 50 270 0.0 0.0 0.00 0.00 0.00 55 1030.8
20210918080019 50 270 0.0 1.0 0.00 0.00 0.00 55 1030.8
20210918075118 49 270 0.0 1.0 0.00 0.00 0.00 55 1030.9
20210918074822 49 270 0.0 0.0 0.00 0.00 0.00 54 1030.9
20210918074519 49 270 0.0 0.0 0.00 0.00 0.00 54 1031.0
20210918074220 50 270 0.0 0.0 0.00 0.00 0.00 54 1031.0
20210918073318 49 270 0.0 0.0 0.00 0.00 0.00 52 1031.0
20210918073020 49 270 0.0 0.0 0.00 0.00 0.00 53 1031.0
20210918072119 50 270 0.0 0.0 0.00 0.00 0.00 56 1030.9
20210918071819 49 270 0.0 0.0 0.00 0.00 0.00 55 1030.9
20210918071520 49 270 0.0 0.0 0.00 0.00 0.00 55 1030.9
20210918071220 49 270 0.0 0.0 0.00 0.00 0.00 54 1030.8
20210918070920 49 270 0.0 0.0 0.00 0.00 0.00 54 1030.8
20210918070620 49 270 0.0 0.0 0.00 0.00 0.00 54 1030.8
20210918065419 49 270 0.0 0.0 0.00 0.00 0.00 56 1030.8
20210918065118 49 270 0.0 0.0 0.00 0.00 0.00 56 1030.9
20210918063921 49 270 0.0 0.0 0.00 0.00 0.00 58 1031.0
20210918063619 49 270 0.0 0.0 0.00 0.00 0.00 59 1030.9
20210918062718 48 270 0.0 0.0 0.00 0.00 0.00 62 1030.9
20210918061518 48 270 0.0 0.0 0.00 0.00 0.00 62 1031.0
20210918061218 48 270 0.0 0.0 0.00 0.00 0.00 63 1030.9
20210918060920 48 270 2.0 2.0 0.00 0.00 0.00 64 1030.9
20210918060620 48 270 1.0 1.0 0.00 0.00 0.00 64 1030.9
20210918060319 48 90 1.0 1.0 0.00 0.00 0.00 64 1030.9
20210918060023 49 266 1.0 2.0 0.00 0.00 0.00 63 1030.9
20210918055725 49 247 1.0 2.0 0.00 0.00 0.00 62 1031.0
20210918055423 49 247 0.0 1.0 0.00 0.00 0.00 62 1030.9
20210918055122 49 247 1.0 2.0 0.00 0.00 0.00 62 1030.9
20210918054822 50 238 0.0 2.0 0.00 0.00 0.00 61 1031.0
20210918054524 50 112 0.0 1.0 0.00 0.00 0.00 61 1031.1
20210918053622 50 270 0.0 0.0 0.00 0.00 0.00 61 1030.9
20210918053324 50 270 0.0 0.0 0.00 0.00 0.00 62 1030.9
20210918053024 50 270 0.0 0.0 0.00 0.00 0.00 62 1030.8
20210918052723 50 270 0.0 0.0 0.00 0.00 0.00 62 1030.8
20210918051523 49 270 0.0 0.0 0.00 0.00 0.00 63 1030.8